sensor_id;sensor_type;location;lat;lon;timestamp;P1;durP1;ratioP1;P2;durP2;ratioP2
51296;SDS011;37380;45.186;9.792;2023-05-17T00:00:36;8.70;;;2.33;;
51296;SDS011;37380;45.186;9.792;2023-05-17T00:03:04;8.63;;;2.53;;
51296;SDS011;37380;45.186;9.792;2023-05-17T00:05:31;6.38;;;2.78;;
51296;SDS011;37380;45.186;9.792;2023-05-17T00:07:58;4.82;;;2.05;;
51296;SDS011;37380;45.186;9.792;2023-05-17T00:10:25;2.97;;;1.73;;
51296;SDS011;37380;45.186;9.792;2023-05-17T00:12:59;2.78;;;2.15;;
51296;SDS011;37380;45.186;9.792;2023-05-17T00:16:00;21.23;;;2.80;;
51296;SDS011;37380;45.186;9.792;2023-05-17T00:18:54;8.02;;;3.03;;
51296;SDS011;37380;45.186;9.792;2023-05-17T00:21:22;11.38;;;3.63;;
51296;SDS011;37380;45.186;9.792;2023-05-17T00:23:49;3.10;;;2.10;;
51296;SDS011;37380;45.186;9.792;2023-05-17T00:26:16;5.20;;;2.38;;
51296;SDS011;37380;45.186;9.792;2023-05-17T00:28:43;2.53;;;2.15;;
51296;SDS011;37380;45.186;9.792;2023-05-17T00:31:13;2.83;;;1.75;;
51296;SDS011;37380;45.186;9.792;2023-05-17T00:33:40;5.28;;;2.38;;
51296;SDS011;37380;45.186;9.792;2023-05-17T00:36:07;3.47;;;1.98;;
51296;SDS011;37380;45.186;9.792;2023-05-17T00:38:34;2.75;;;2.10;;
51296;SDS011;37380;45.186;9.792;2023-05-17T00:41:01;6.63;;;2.17;;
51296;SDS011;37380;45.186;9.792;2023-05-17T00:43:28;6.10;;;1.80;;
51296;SDS011;37380;45.186;9.792;2023-05-17T00:45:55;15.52;;;3.15;;
51296;SDS011;37380;45.186;9.792;2023-05-17T00:48:23;2.65;;;2.10;;
51296;SDS011;37380;45.186;9.792;2023-05-17T00:50:54;8.80;;;2.28;;
51296;SDS011;37380;45.186;9.792;2023-05-17T00:53:22;2.97;;;2.05;;
51296;SDS011;37380;45.186;9.792;2023-05-17T00:55:49;4.30;;;2.65;;
51296;SDS011;37380;45.186;9.792;2023-05-17T00:58:17;10.00;;;2.67;;
51296;SDS011;37380;45.186;9.792;2023-05-17T01:00:44;6.93;;;3.22;;
51296;SDS011;37380;45.186;9.792;2023-05-17T01:03:15;6.68;;;2.38;;
51296;SDS011;37380;45.186;9.792;2023-05-17T01:05:42;5.05;;;2.00;;
51296;SDS011;37380;45.186;9.792;2023-05-17T01:08:10;23.00;;;2.92;;
51296;SDS011;37380;45.186;9.792;2023-05-17T01:13:45;5.97;;;2.30;;
51296;SDS011;37380;45.186;9.792;2023-05-17T01:16:55;2.25;;;2.05;;
51296;SDS011;37380;45.186;9.792;2023-05-17T01:22:52;7.50;;;2.78;;
51296;SDS011;37380;45.186;9.792;2023-05-17T01:28:03;11.32;;;3.25;;
51296;SDS011;37380;45.186;9.792;2023-05-17T01:30:32;8.77;;;3.45;;
51296;SDS011;37380;45.186;9.792;2023-05-17T01:33:01;5.20;;;2.08;;
51296;SDS011;37380;45.186;9.792;2023-05-17T01:35:29;2.47;;;2.28;;
51296;SDS011;37380;45.186;9.792;2023-05-17T01:37:57;3.22;;;2.40;;
51296;SDS011;37380;45.186;9.792;2023-05-17T01:40:24;3.42;;;2.78;;
51296;SDS011;37380;45.186;9.792;2023-05-17T01:42:53;5.07;;;3.00;;
51296;SDS011;37380;45.186;9.792;2023-05-17T01:45:29;9.98;;;3.38;;
51296;SDS011;37380;45.186;9.792;2023-05-17T01:50:35;6.78;;;2.75;;
51296;SDS011;37380;45.186;9.792;2023-05-17T01:53:09;15.55;;;3.40;;
51296;SDS011;37380;45.186;9.792;2023-05-17T01:55:43;3.58;;;2.65;;
51296;SDS011;37380;45.186;9.792;2023-05-17T01:58:17;7.53;;;3.03;;
51296;SDS011;37380;45.186;9.792;2023-05-17T02:00:47;8.68;;;2.60;;
51296;SDS011;37380;45.186;9.792;2023-05-17T02:03:17;11.18;;;2.60;;
51296;SDS011;37380;45.186;9.792;2023-05-17T02:05:50;3.08;;;2.72;;
51296;SDS011;37380;45.186;9.792;2023-05-17T02:08:17;4.95;;;3.20;;
51296;SDS011;37380;45.186;9.792;2023-05-17T02:10:45;7.75;;;3.55;;
51296;SDS011;37380;45.186;9.792;2023-05-17T02:13:18;3.92;;;3.45;;
51296;SDS011;37380;45.186;9.792;2023-05-17T02:16:19;7.30;;;3.50;;
51296;SDS011;37380;45.186;9.792;2023-05-17T02:19:13;11.93;;;3.40;;
51296;SDS011;37380;45.186;9.792;2023-05-17T02:21:40;6.68;;;3.85;;
51296;SDS011;37380;45.186;9.792;2023-05-17T02:24:08;3.55;;;3.15;;
51296;SDS011;37380;45.186;9.792;2023-05-17T02:26:34;4.75;;;3.03;;
51296;SDS011;37380;45.186;9.792;2023-05-17T02:29:02;4.03;;;2.58;;
51296;SDS011;37380;45.186;9.792;2023-05-17T02:31:29;7.20;;;2.42;;
51296;SDS011;37380;45.186;9.792;2023-05-17T02:33:57;5.15;;;3.17;;
51296;SDS011;37380;45.186;9.792;2023-05-17T02:36:24;5.30;;;3.25;;
51296;SDS011;37380;45.186;9.792;2023-05-17T02:38:51;5.18;;;3.38;;
51296;SDS011;37380;45.186;9.792;2023-05-17T02:41:18;3.28;;;2.67;;
51296;SDS011;37380;45.186;9.792;2023-05-17T02:43:45;16.88;;;3.33;;
51296;SDS011;37380;45.186;9.792;2023-05-17T02:46:12;3.85;;;3.28;;
51296;SDS011;37380;45.186;9.792;2023-05-17T02:48:39;6.03;;;3.80;;
51296;SDS011;37380;45.186;9.792;2023-05-17T02:51:06;3.30;;;3.00;;
51296;SDS011;37380;45.186;9.792;2023-05-17T02:53:34;8.75;;;3.60;;
51296;SDS011;37380;45.186;9.792;2023-05-17T02:56:01;7.85;;;3.05;;
51296;SDS011;37380;45.186;9.792;2023-05-17T02:58:30;7.82;;;3.17;;
51296;SDS011;37380;45.186;9.792;2023-05-17T03:00:57;5.32;;;3.20;;
51296;SDS011;37380;45.186;9.792;2023-05-17T03:03:25;5.13;;;3.25;;
51296;SDS011;37380;45.186;9.792;2023-05-17T03:05:52;3.03;;;2.80;;
51296;SDS011;37380;45.186;9.792;2023-05-17T03:08:21;3.88;;;2.92;;
51296;SDS011;37380;45.186;9.792;2023-05-17T03:10:54;4.30;;;2.83;;
51296;SDS011;37380;45.186;9.792;2023-05-17T03:13:56;7.65;;;2.75;;
51296;SDS011;37380;45.186;9.792;2023-05-17T03:16:51;9.00;;;2.92;;
51296;SDS011;37380;45.186;9.792;2023-05-17T03:19:18;3.20;;;2.90;;
51296;SDS011;37380;45.186;9.792;2023-05-17T03:21:46;3.70;;;3.00;;
51296;SDS011;37380;45.186;9.792;2023-05-17T03:24:13;2.72;;;2.53;;
51296;SDS011;37380;45.186;9.792;2023-05-17T03:26:40;7.55;;;2.60;;
51296;SDS011;37380;45.186;9.792;2023-05-17T03:29:09;3.47;;;2.95;;
51296;SDS011;37380;45.186;9.792;2023-05-17T03:31:40;12.05;;;2.50;;
51296;SDS011;37380;45.186;9.792;2023-05-17T03:34:09;4.20;;;2.67;;
51296;SDS011;37380;45.186;9.792;2023-05-17T03:36:37;5.10;;;3.58;;
51296;SDS011;37380;45.186;9.792;2023-05-17T03:39:06;11.57;;;3.55;;
51296;SDS011;37380;45.186;9.792;2023-05-17T03:41:38;4.32;;;3.50;;
51296;SDS011;37380;45.186;9.792;2023-05-17T03:44:08;5.40;;;2.70;;
51296;SDS011;37380;45.186;9.792;2023-05-17T03:46:36;2.90;;;2.70;;
51296;SDS011;37380;45.186;9.792;2023-05-17T03:49:03;3.83;;;3.35;;
51296;SDS011;37380;45.186;9.792;2023-05-17T03:51:32;24.80;;;4.32;;
51296;SDS011;37380;45.186;9.792;2023-05-17T03:53:59;4.97;;;3.50;;
51296;SDS011;37380;45.186;9.792;2023-05-17T03:56:29;5.80;;;3.60;;
51296;SDS011;37380;45.186;9.792;2023-05-17T03:58:57;6.57;;;3.08;;
51296;SDS011;37380;45.186;9.792;2023-05-17T04:01:25;6.85;;;3.47;;
51296;SDS011;37380;45.186;9.792;2023-05-17T04:03:54;7.15;;;2.65;;
51296;SDS011;37380;45.186;9.792;2023-05-17T04:06:22;7.68;;;3.17;;
51296;SDS011;37380;45.186;9.792;2023-05-17T04:08:52;16.38;;;9.13;;
51296;SDS011;37380;45.186;9.792;2023-05-17T04:11:21;5.85;;;4.15;;
51296;SDS011;37380;45.186;9.792;2023-05-17T04:13:59;11.40;;;2.72;;
51296;SDS011;37380;45.186;9.792;2023-05-17T04:16:39;9.00;;;2.92;;
51296;SDS011;37380;45.186;9.792;2023-05-17T04:19:06;5.50;;;4.53;;
51296;SDS011;37380;45.186;9.792;2023-05-17T04:21:36;5.30;;;4.45;;
51296;SDS011;37380;45.186;9.792;2023-05-17T04:24:05;5.90;;;4.22;;
51296;SDS011;37380;45.186;9.792;2023-05-17T04:26:33;8.30;;;4.32;;
51296;SDS011;37380;45.186;9.792;2023-05-17T04:29:02;4.60;;;3.83;;
51296;SDS011;37380;45.186;9.792;2023-05-17T04:31:29;4.95;;;4.45;;
51296;SDS011;37380;45.186;9.792;2023-05-17T04:34:00;3.85;;;3.55;;
51296;SDS011;37380;45.186;9.792;2023-05-17T04:36:31;6.28;;;5.40;;
51296;SDS011;37380;45.186;9.792;2023-05-17T04:38:59;5.13;;;3.78;;
51296;SDS011;37380;45.186;9.792;2023-05-17T04:41:29;13.07;;;4.78;;
51296;SDS011;37380;45.186;9.792;2023-05-17T04:43:59;7.78;;;5.88;;
51296;SDS011;37380;45.186;9.792;2023-05-17T04:46:33;12.77;;;5.13;;
51296;SDS011;37380;45.186;9.792;2023-05-17T04:49:01;8.48;;;5.65;;
51296;SDS011;37380;45.186;9.792;2023-05-17T04:51:29;7.45;;;5.15;;
51296;SDS011;37380;45.186;9.792;2023-05-17T04:53:57;9.98;;;4.85;;
51296;SDS011;37380;45.186;9.792;2023-05-17T04:56:28;11.73;;;5.03;;
51296;SDS011;37380;45.186;9.792;2023-05-17T04:58:56;11.40;;;10.15;;
51296;SDS011;37380;45.186;9.792;2023-05-17T05:01:24;21.02;;;13.45;;
51296;SDS011;37380;45.186;9.792;2023-05-17T05:03:52;6.43;;;5.60;;
51296;SDS011;37380;45.186;9.792;2023-05-17T05:06:21;6.25;;;4.40;;
51296;SDS011;37380;45.186;9.792;2023-05-17T05:08:49;11.82;;;5.93;;
51296;SDS011;37380;45.186;9.792;2023-05-17T05:11:25;5.60;;;4.55;;
51296;SDS011;37380;45.186;9.792;2023-05-17T05:14:11;7.97;;;5.03;;
51296;SDS011;37380;45.186;9.792;2023-05-17T05:16:52;9.73;;;5.53;;
51296;SDS011;37380;45.186;9.792;2023-05-17T05:19:20;8.57;;;4.40;;
51296;SDS011;37380;45.186;9.792;2023-05-17T05:22:02;5.25;;;3.58;;
51296;SDS011;37380;45.186;9.792;2023-05-17T05:24:33;5.03;;;4.05;;
51296;SDS011;37380;45.186;9.792;2023-05-17T05:27:02;6.40;;;4.60;;
51296;SDS011;37380;45.186;9.792;2023-05-17T05:29:34;6.32;;;3.28;;
51296;SDS011;37380;45.186;9.792;2023-05-17T05:37:35;9.27;;;3.13;;
51296;SDS011;37380;45.186;9.792;2023-05-17T05:40:03;8.07;;;3.10;;
51296;SDS011;37380;45.186;9.792;2023-05-17T05:42:37;4.72;;;3.00;;
51296;SDS011;37380;45.186;9.792;2023-05-17T05:45:32;4.10;;;3.45;;
51296;SDS011;37380;45.186;9.792;2023-05-17T05:48:01;9.50;;;2.85;;
51296;SDS011;37380;45.186;9.792;2023-05-17T05:50:41;3.03;;;2.33;;
51296;SDS011;37380;45.186;9.792;2023-05-17T05:53:37;5.45;;;3.17;;
51296;SDS011;37380;45.186;9.792;2023-05-17T05:56:10;12.00;;;3.42;;
51296;SDS011;37380;45.186;9.792;2023-05-17T05:59:05;3.17;;;2.20;;
51296;SDS011;37380;45.186;9.792;2023-05-17T06:01:32;7.47;;;2.67;;
51296;SDS011;37380;45.186;9.792;2023-05-17T06:04:00;3.13;;;2.83;;
51296;SDS011;37380;45.186;9.792;2023-05-17T06:06:27;4.60;;;2.45;;
51296;SDS011;37380;45.186;9.792;2023-05-17T06:08:54;2.85;;;2.30;;
51296;SDS011;37380;45.186;9.792;2023-05-17T06:11:25;5.13;;;2.67;;
51296;SDS011;37380;45.186;9.792;2023-05-17T06:13:52;3.05;;;2.75;;
51296;SDS011;37380;45.186;9.792;2023-05-17T06:16:19;5.53;;;2.47;;
51296;SDS011;37380;45.186;9.792;2023-05-17T06:18:47;3.03;;;2.25;;
51296;SDS011;37380;45.186;9.792;2023-05-17T06:21:16;3.25;;;2.28;;
51296;SDS011;37380;45.186;9.792;2023-05-17T06:23:51;15.45;;;3.30;;
51296;SDS011;37380;45.186;9.792;2023-05-17T06:26:51;3.50;;;3.22;;
51296;SDS011;37380;45.186;9.792;2023-05-17T06:29:46;5.95;;;2.45;;
51296;SDS011;37380;45.186;9.792;2023-05-17T06:32:13;2.60;;;2.40;;
51296;SDS011;37380;45.186;9.792;2023-05-17T06:34:40;4.10;;;2.35;;
51296;SDS011;37380;45.186;9.792;2023-05-17T06:37:07;5.13;;;2.10;;
51296;SDS011;37380;45.186;9.792;2023-05-17T06:39:41;2.65;;;2.05;;
51296;SDS011;37380;45.186;9.792;2023-05-17T06:42:55;4.00;;;3.30;;
51296;SDS011;37380;45.186;9.792;2023-05-17T06:45:56;3.42;;;2.33;;
51296;SDS011;37380;45.186;9.792;2023-05-17T06:48:51;2.63;;;2.40;;
51296;SDS011;37380;45.186;9.792;2023-05-17T06:51:24;4.18;;;2.35;;
51296;SDS011;37380;45.186;9.792;2023-05-17T06:54:25;1.95;;;1.80;;
51296;SDS011;37380;45.186;9.792;2023-05-17T06:57:20;8.75;;;2.45;;
51296;SDS011;37380;45.186;9.792;2023-05-17T07:00:21;6.22;;;2.70;;
51296;SDS011;37380;45.186;9.792;2023-05-17T07:03:15;2.53;;;2.33;;
51296;SDS011;37380;45.186;9.792;2023-05-17T07:05:44;6.35;;;2.75;;
51296;SDS011;37380;45.186;9.792;2023-05-17T07:08:17;3.42;;;2.80;;
51296;SDS011;37380;45.186;9.792;2023-05-17T07:11:12;2.53;;;2.33;;
51296;SDS011;37380;45.186;9.792;2023-05-17T07:13:45;2.42;;;2.28;;
51296;SDS011;37380;45.186;9.792;2023-05-17T07:16:46;4.55;;;2.03;;
51296;SDS011;37380;45.186;9.792;2023-05-17T07:19:47;4.75;;;2.78;;
51296;SDS011;37380;45.186;9.792;2023-05-17T07:22:42;2.88;;;2.15;;
51296;SDS011;37380;45.186;9.792;2023-05-17T07:25:09;3.25;;;1.90;;
51296;SDS011;37380;45.186;9.792;2023-05-17T07:27:43;2.67;;;2.38;;
51296;SDS011;37380;45.186;9.792;2023-05-17T07:30:43;5.75;;;1.88;;
51296;SDS011;37380;45.186;9.792;2023-05-17T07:33:38;2.50;;;1.65;;
51296;SDS011;37380;45.186;9.792;2023-05-17T07:36:05;5.82;;;1.92;;
51296;SDS011;37380;45.186;9.792;2023-05-17T07:38:33;4.75;;;2.30;;
51296;SDS011;37380;45.186;9.792;2023-05-17T07:41:03;5.95;;;2.35;;
51296;SDS011;37380;45.186;9.792;2023-05-17T07:43:35;3.08;;;1.45;;
51296;SDS011;37380;45.186;9.792;2023-05-17T07:46:03;2.50;;;1.55;;
51296;SDS011;37380;45.186;9.792;2023-05-17T07:48:30;11.25;;;2.03;;
51296;SDS011;37380;45.186;9.792;2023-05-17T07:51:05;1.98;;;1.85;;
51296;SDS011;37380;45.186;9.792;2023-05-17T07:53:59;2.92;;;1.33;;
51296;SDS011;37380;45.186;9.792;2023-05-17T07:56:28;2.95;;;1.48;;
51296;SDS011;37380;45.186;9.792;2023-05-17T07:59:02;2.10;;;1.40;;
51296;SDS011;37380;45.186;9.792;2023-05-17T08:01:56;1.20;;;1.10;;
51296;SDS011;37380;45.186;9.792;2023-05-17T08:04:23;3.85;;;1.40;;
51296;SDS011;37380;45.186;9.792;2023-05-17T08:06:50;1.35;;;1.25;;
51296;SDS011;37380;45.186;9.792;2023-05-17T08:09:17;1.25;;;1.00;;
51296;SDS011;37380;45.186;9.792;2023-05-17T08:11:45;1.23;;;1.13;;
51296;SDS011;37380;45.186;9.792;2023-05-17T08:14:16;1.17;;;0.98;;
51296;SDS011;37380;45.186;9.792;2023-05-17T08:16:44;3.28;;;1.25;;
51296;SDS011;37380;45.186;9.792;2023-05-17T08:19:12;0.80;;;0.80;;
51296;SDS011;37380;45.186;9.792;2023-05-17T08:21:40;1.98;;;1.10;;
51296;SDS011;37380;45.186;9.792;2023-05-17T08:24:08;0.68;;;0.68;;
51296;SDS011;37380;45.186;9.792;2023-05-17T08:26:35;1.88;;;1.05;;
51296;SDS011;37380;45.186;9.792;2023-05-17T08:29:10;1.15;;;1.05;;
51296;SDS011;37380;45.186;9.792;2023-05-17T08:32:11;0.85;;;0.82;;
51296;SDS011;37380;45.186;9.792;2023-05-17T08:35:05;1.75;;;1.23;;
51296;SDS011;37380;45.186;9.792;2023-05-17T08:37:33;1.98;;;1.08;;
51296;SDS011;37380;45.186;9.792;2023-05-17T08:40:00;1.88;;;1.17;;
51296;SDS011;37380;45.186;9.792;2023-05-17T08:42:27;1.58;;;1.33;;
51296;SDS011;37380;45.186;9.792;2023-05-17T08:44:55;11.30;;;1.10;;
51296;SDS011;37380;45.186;9.792;2023-05-17T08:47:23;6.35;;;1.10;;
51296;SDS011;37380;45.186;9.792;2023-05-17T08:49:58;1.75;;;0.90;;
51296;SDS011;37380;45.186;9.792;2023-05-17T08:52:53;1.08;;;0.85;;
51296;SDS011;37380;45.186;9.792;2023-05-17T08:55:22;1.35;;;0.73;;
51296;SDS011;37380;45.186;9.792;2023-05-17T08:57:58;1.15;;;0.93;;
51296;SDS011;37380;45.186;9.792;2023-05-17T09:00:53;1.27;;;0.77;;
51296;SDS011;37380;45.186;9.792;2023-05-17T09:03:21;3.08;;;0.65;;
51296;SDS011;37380;45.186;9.792;2023-05-17T09:05:50;1.52;;;0.70;;
51296;SDS011;37380;45.186;9.792;2023-05-17T09:08:21;0.82;;;0.80;;
51296;SDS011;37380;45.186;9.792;2023-05-17T09:10:49;0.95;;;0.40;;
51296;SDS011;37380;45.186;9.792;2023-05-17T09:13:23;1.15;;;0.70;;
51296;SDS011;37380;45.186;9.792;2023-05-17T09:16:18;1.48;;;0.63;;
51296;SDS011;37380;45.186;9.792;2023-05-17T09:18:54;0.50;;;0.50;;
51296;SDS011;37380;45.186;9.792;2023-05-17T09:21:23;1.23;;;0.50;;
51296;SDS011;37380;45.186;9.792;2023-05-17T09:23:51;1.27;;;0.65;;
51296;SDS011;37380;45.186;9.792;2023-05-17T09:26:38;1.63;;;0.47;;
51296;SDS011;37380;45.186;9.792;2023-05-17T09:29:14;0.32;;;0.32;;
51296;SDS011;37380;45.186;9.792;2023-05-17T09:32:16;5.57;;;0.70;;
51296;SDS011;37380;45.186;9.792;2023-05-17T09:35:19;1.83;;;0.70;;
51296;SDS011;37380;45.186;9.792;2023-05-17T09:38:24;1.77;;;0.50;;
51296;SDS011;37380;45.186;9.792;2023-05-17T09:40:51;0.88;;;0.50;;
51296;SDS011;37380;45.186;9.792;2023-05-17T09:43:22;2.08;;;0.52;;
51296;SDS011;37380;45.186;9.792;2023-05-17T09:45:55;1.13;;;0.55;;
51296;SDS011;37380;45.186;9.792;2023-05-17T09:48:25;0.28;;;0.28;;
51296;SDS011;37380;45.186;9.792;2023-05-17T09:51:01;0.85;;;0.40;;
51296;SDS011;37380;45.186;9.792;2023-05-17T09:53:49;0.30;;;0.30;;
51296;SDS011;37380;45.186;9.792;2023-05-17T09:56:20;0.70;;;0.57;;
51296;SDS011;37380;45.186;9.792;2023-05-17T09:58:55;1.58;;;0.40;;
51296;SDS011;37380;45.186;9.792;2023-05-17T10:01:49;1.98;;;0.38;;
51296;SDS011;37380;45.186;9.792;2023-05-17T10:04:17;0.40;;;0.40;;
51296;SDS011;37380;45.186;9.792;2023-05-17T10:06:48;1.17;;;0.55;;
51296;SDS011;37380;45.186;9.792;2023-05-17T10:09:20;1.13;;;0.63;;
51296;SDS011;37380;45.186;9.792;2023-05-17T10:11:48;2.75;;;0.60;;
51296;SDS011;37380;45.186;9.792;2023-05-17T10:14:23;1.52;;;0.63;;
51296;SDS011;37380;45.186;9.792;2023-05-17T10:16:54;0.73;;;0.50;;
51296;SDS011;37380;45.186;9.792;2023-05-17T10:19:23;5.63;;;0.65;;
51296;SDS011;37380;45.186;9.792;2023-05-17T10:21:58;1.25;;;0.52;;
51296;SDS011;37380;45.186;9.792;2023-05-17T10:25:02;5.05;;;0.55;;
51296;SDS011;37380;45.186;9.792;2023-05-17T10:27:37;0.63;;;0.63;;
51296;SDS011;37380;45.186;9.792;2023-05-17T10:30:38;0.77;;;0.70;;
51296;SDS011;37380;45.186;9.792;2023-05-17T10:33:40;1.58;;;0.52;;
51296;SDS011;37380;45.186;9.792;2023-05-17T10:36:18;0.82;;;0.50;;
51296;SDS011;37380;45.186;9.792;2023-05-17T10:38:46;1.33;;;0.90;;
51296;SDS011;37380;45.186;9.792;2023-05-17T10:41:13;0.60;;;0.60;;
51296;SDS011;37380;45.186;9.792;2023-05-17T10:43:43;1.10;;;0.70;;
51296;SDS011;37380;45.186;9.792;2023-05-17T10:46:15;1.42;;;0.65;;
51296;SDS011;37380;45.186;9.792;2023-05-17T10:48:47;6.13;;;0.82;;
51296;SDS011;37380;45.186;9.792;2023-05-17T10:51:25;0.55;;;0.52;;
51296;SDS011;37380;45.186;9.792;2023-05-17T10:54:33;0.50;;;0.50;;
51296;SDS011;37380;45.186;9.792;2023-05-17T10:57:05;1.05;;;0.57;;
51296;SDS011;37380;45.186;9.792;2023-05-17T10:59:57;2.43;;;0.90;;
51296;SDS011;37380;45.186;9.792;2023-05-17T11:02:55;1.70;;;0.82;;
51296;SDS011;37380;45.186;9.792;2023-05-17T11:05:40;1.17;;;0.73;;
51296;SDS011;37380;45.186;9.792;2023-05-17T11:08:16;1.00;;;0.93;;
51296;SDS011;37380;45.186;9.792;2023-05-17T11:11:12;4.63;;;1.10;;
51296;SDS011;37380;45.186;9.792;2023-05-17T11:13:43;1.27;;;1.13;;
51296;SDS011;37380;45.186;9.792;2023-05-17T11:16:14;2.35;;;0.85;;
51296;SDS011;37380;45.186;9.792;2023-05-17T11:18:54;1.17;;;1.05;;
51296;SDS011;37380;45.186;9.792;2023-05-17T11:21:30;4.32;;;1.33;;
51296;SDS011;37380;45.186;9.792;2023-05-17T11:24:25;2.33;;;1.20;;
51296;SDS011;37380;45.186;9.792;2023-05-17T11:26:53;1.10;;;1.05;;
51296;SDS011;37380;45.186;9.792;2023-05-17T11:29:22;1.52;;;1.08;;
51296;SDS011;37380;45.186;9.792;2023-05-17T11:31:55;2.22;;;1.30;;
51296;SDS011;37380;45.186;9.792;2023-05-17T11:34:22;1.02;;;0.93;;
51296;SDS011;37380;45.186;9.792;2023-05-17T11:36:52;1.15;;;1.10;;
51296;SDS011;37380;45.186;9.792;2023-05-17T11:39:23;1.00;;;0.80;;
51296;SDS011;37380;45.186;9.792;2023-05-17T11:41:51;1.70;;;1.13;;
51296;SDS011;37380;45.186;9.792;2023-05-17T11:44:23;2.45;;;0.80;;
51296;SDS011;37380;45.186;9.792;2023-05-17T11:47:04;2.38;;;1.35;;
51296;SDS011;37380;45.186;9.792;2023-05-17T11:50:07;1.33;;;1.20;;
51296;SDS011;37380;45.186;9.792;2023-05-17T11:53:09;1.25;;;1.15;;
51296;SDS011;37380;45.186;9.792;2023-05-17T11:56:04;4.00;;;0.80;;
51296;SDS011;37380;45.186;9.792;2023-05-17T11:58:40;1.88;;;1.10;;
51296;SDS011;37380;45.186;9.792;2023-05-17T12:01:44;1.05;;;0.95;;
51296;SDS011;37380;45.186;9.792;2023-05-17T12:04:13;0.80;;;0.80;;
51296;SDS011;37380;45.186;9.792;2023-05-17T12:06:48;4.22;;;1.35;;
51296;SDS011;37380;45.186;9.792;2023-05-17T12:09:15;1.42;;;0.98;;
51296;SDS011;37380;45.186;9.792;2023-05-17T12:11:43;0.77;;;0.77;;
51296;SDS011;37380;45.186;9.792;2023-05-17T12:14:13;1.75;;;1.00;;
51296;SDS011;37380;45.186;9.792;2023-05-17T12:16:49;0.80;;;0.80;;
51296;SDS011;37380;45.186;9.792;2023-05-17T12:19:45;1.23;;;1.13;;
51296;SDS011;37380;45.186;9.792;2023-05-17T12:22:14;2.05;;;0.95;;
51296;SDS011;37380;45.186;9.792;2023-05-17T12:24:41;4.38;;;1.17;;
51296;SDS011;37380;45.186;9.792;2023-05-17T12:27:09;1.83;;;0.98;;
51296;SDS011;37380;45.186;9.792;2023-05-17T12:29:37;0.85;;;0.85;;
51296;SDS011;37380;45.186;9.792;2023-05-17T12:32:05;0.80;;;0.80;;
51296;SDS011;37380;45.186;9.792;2023-05-17T12:34:34;2.35;;;1.30;;
51296;SDS011;37380;45.186;9.792;2023-05-17T12:37:09;1.20;;;1.10;;
51296;SDS011;37380;45.186;9.792;2023-05-17T12:40:04;1.67;;;1.05;;
51296;SDS011;37380;45.186;9.792;2023-05-17T12:42:32;1.13;;;1.05;;
51296;SDS011;37380;45.186;9.792;2023-05-17T12:44:59;1.30;;;1.20;;
51296;SDS011;37380;45.186;9.792;2023-05-17T12:47:34;1.08;;;1.00;;
51296;SDS011;37380;45.186;9.792;2023-05-17T12:50:35;0.90;;;0.90;;
51296;SDS011;37380;45.186;9.792;2023-05-17T12:53:33;1.83;;;1.08;;
51296;SDS011;37380;45.186;9.792;2023-05-17T12:56:02;1.17;;;1.08;;
51296;SDS011;37380;45.186;9.792;2023-05-17T12:58:30;5.45;;;1.30;;
51296;SDS011;37380;45.186;9.792;2023-05-17T13:00:58;1.40;;;1.30;;
51296;SDS011;37380;45.186;9.792;2023-05-17T13:03:27;1.15;;;1.05;;
51296;SDS011;37380;45.186;9.792;2023-05-17T13:06:02;4.25;;;1.58;;
51296;SDS011;37380;45.186;9.792;2023-05-17T13:08:31;1.55;;;0.90;;
51296;SDS011;37380;45.186;9.792;2023-05-17T13:11:08;3.15;;;1.33;;
51296;SDS011;37380;45.186;9.792;2023-05-17T13:13:40;1.90;;;1.10;;
51296;SDS011;37380;45.186;9.792;2023-05-17T13:16:14;2.55;;;1.65;;
51296;SDS011;37380;45.186;9.792;2023-05-17T13:19:13;1.95;;;1.27;;
51296;SDS011;37380;45.186;9.792;2023-05-17T13:21:41;3.80;;;1.70;;
51296;SDS011;37380;45.186;9.792;2023-05-17T13:24:08;3.63;;;1.55;;
51296;SDS011;37380;45.186;9.792;2023-05-17T13:26:37;1.25;;;1.13;;
51296;SDS011;37380;45.186;9.792;2023-05-17T13:29:04;3.03;;;1.30;;
51296;SDS011;37380;45.186;9.792;2023-05-17T13:31:38;3.13;;;1.40;;
51296;SDS011;37380;45.186;9.792;2023-05-17T13:34:33;1.38;;;1.27;;
51296;SDS011;37380;45.186;9.792;2023-05-17T13:37:08;1.60;;;1.50;;
51296;SDS011;37380;45.186;9.792;2023-05-17T13:40:09;1.45;;;1.35;;
51296;SDS011;37380;45.186;9.792;2023-05-17T13:43:03;1.50;;;1.40;;
51296;SDS011;37380;45.186;9.792;2023-05-17T13:45:31;4.97;;;1.75;;
51296;SDS011;37380;45.186;9.792;2023-05-17T13:48:05;2.00;;;1.70;;
51296;SDS011;37380;45.186;9.792;2023-05-17T13:51:06;4.25;;;1.88;;
51296;SDS011;37380;45.186;9.792;2023-05-17T13:54:00;1.80;;;1.67;;
51296;SDS011;37380;45.186;9.792;2023-05-17T13:56:37;4.10;;;2.22;;
51296;SDS011;37380;45.186;9.792;2023-05-17T13:59:31;3.45;;;2.22;;
51296;SDS011;37380;45.186;9.792;2023-05-17T14:02:00;4.03;;;2.13;;
51296;SDS011;37380;45.186;9.792;2023-05-17T14:04:27;3.63;;;1.67;;
51296;SDS011;37380;45.186;9.792;2023-05-17T14:06:54;2.13;;;2.00;;
51296;SDS011;37380;45.186;9.792;2023-05-17T14:09:21;2.10;;;1.90;;
51296;SDS011;37380;45.186;9.792;2023-05-17T14:11:49;3.03;;;2.13;;
51296;SDS011;37380;45.186;9.792;2023-05-17T14:14:16;2.00;;;1.90;;
51296;SDS011;37380;45.186;9.792;2023-05-17T14:16:43;5.13;;;2.00;;
51296;SDS011;37380;45.186;9.792;2023-05-17T14:19:11;2.03;;;1.83;;
51296;SDS011;37380;45.186;9.792;2023-05-17T14:21:38;3.28;;;2.60;;
51296;SDS011;37380;45.186;9.792;2023-05-17T14:24:06;7.20;;;2.60;;
51296;SDS011;37380;45.186;9.792;2023-05-17T14:26:33;2.78;;;2.35;;
51296;SDS011;37380;45.186;9.792;2023-05-17T14:29:00;2.65;;;2.13;;
51296;SDS011;37380;45.186;9.792;2023-05-17T14:31:27;2.58;;;2.38;;
51296;SDS011;37380;45.186;9.792;2023-05-17T14:33:56;5.28;;;2.00;;
51296;SDS011;37380;45.186;9.792;2023-05-17T14:36:23;2.30;;;2.10;;
51296;SDS011;37380;45.186;9.792;2023-05-17T14:38:50;2.75;;;2.28;;
51296;SDS011;37380;45.186;9.792;2023-05-17T14:41:17;1.92;;;1.83;;
51296;SDS011;37380;45.186;9.792;2023-05-17T14:43:44;3.83;;;2.38;;
51296;SDS011;37380;45.186;9.792;2023-05-17T14:46:11;2.05;;;1.85;;
51296;SDS011;37380;45.186;9.792;2023-05-17T14:48:40;2.70;;;2.50;;
51296;SDS011;37380;45.186;9.792;2023-05-17T14:51:14;3.47;;;1.77;;
51296;SDS011;37380;45.186;9.792;2023-05-17T14:54:15;2.08;;;1.52;;
51296;SDS011;37380;45.186;9.792;2023-05-17T14:57:18;2.35;;;2.15;;
51296;SDS011;37380;45.186;9.792;2023-05-17T15:00:20;2.17;;;1.98;;
51296;SDS011;37380;45.186;9.792;2023-05-17T15:03:14;6.68;;;2.17;;
51296;SDS011;37380;45.186;9.792;2023-05-17T15:05:51;2.90;;;2.15;;
51296;SDS011;37380;45.186;9.792;2023-05-17T15:08:58;3.58;;;2.30;;
51296;SDS011;37380;45.186;9.792;2023-05-17T15:11:59;2.42;;;1.98;;
51296;SDS011;37380;45.186;9.792;2023-05-17T15:14:42;2.47;;;1.88;;
51296;SDS011;37380;45.186;9.792;2023-05-17T15:17:17;4.10;;;2.08;;
51296;SDS011;37380;45.186;9.792;2023-05-17T15:20:11;5.10;;;1.90;;
51296;SDS011;37380;45.186;9.792;2023-05-17T15:22:39;6.22;;;1.80;;
51296;SDS011;37380;45.186;9.792;2023-05-17T15:25:07;2.22;;;1.63;;
51296;SDS011;37380;45.186;9.792;2023-05-17T15:27:40;3.03;;;2.15;;
51296;SDS011;37380;45.186;9.792;2023-05-17T15:30:41;4.18;;;1.98;;
51296;SDS011;37380;45.186;9.792;2023-05-17T15:33:35;4.18;;;2.17;;
51296;SDS011;37380;45.186;9.792;2023-05-17T15:36:05;2.75;;;2.17;;
51296;SDS011;37380;45.186;9.792;2023-05-17T15:38:39;2.40;;;1.98;;
51296;SDS011;37380;45.186;9.792;2023-05-17T15:41:40;2.40;;;2.20;;
51296;SDS011;37380;45.186;9.792;2023-05-17T15:44:34;2.28;;;2.08;;
51296;SDS011;37380;45.186;9.792;2023-05-17T15:47:08;2.38;;;2.03;;
51296;SDS011;37380;45.186;9.792;2023-05-17T15:50:25;2.47;;;1.98;;
51296;SDS011;37380;45.186;9.792;2023-05-17T15:53:19;2.22;;;1.70;;